sensor_id;sensor_type;location;lat;lon;timestamp;P1;durP1;ratioP1;P2;durP2;ratioP2
35977;SDS011;22056;0.000;0.000;2023-06-05T00:00:08;0.20;;;0.20;;
35977;SDS011;22056;0.000;0.000;2023-06-05T00:02:34;0.22;;;0.22;;
35977;SDS011;22056;0.000;0.000;2023-06-05T00:05:01;0.20;;;0.20;;
35977;SDS011;22056;0.000;0.000;2023-06-05T00:07:28;0.30;;;0.30;;
35977;SDS011;22056;0.000;0.000;2023-06-05T00:09:54;0.30;;;0.30;;
35977;SDS011;22056;0.000;0.000;2023-06-05T00:12:20;0.30;;;0.30;;
35977;SDS011;22056;0.000;0.000;2023-06-05T00:14:46;0.30;;;0.30;;
35977;SDS011;22056;0.000;0.000;2023-06-05T00:17:12;0.40;;;0.40;;
35977;SDS011;22056;0.000;0.000;2023-06-05T00:19:39;0.30;;;0.30;;
35977;SDS011;22056;0.000;0.000;2023-06-05T00:22:05;0.30;;;0.30;;
35977;SDS011;22056;0.000;0.000;2023-06-05T00:24:31;0.40;;;0.40;;
35977;SDS011;22056;0.000;0.000;2023-06-05T00:26:57;0.30;;;0.30;;
35977;SDS011;22056;0.000;0.000;2023-06-05T00:29:23;0.38;;;0.38;;
35977;SDS011;22056;0.000;0.000;2023-06-05T00:31:49;0.30;;;0.30;;
35977;SDS011;22056;0.000;0.000;2023-06-05T00:34:15;0.40;;;0.40;;
35977;SDS011;22056;0.000;0.000;2023-06-05T00:36:42;0.30;;;0.30;;
35977;SDS011;22056;0.000;0.000;2023-06-05T00:39:08;0.35;;;0.35;;
35977;SDS011;22056;0.000;0.000;2023-06-05T00:41:35;0.38;;;0.38;;
35977;SDS011;22056;0.000;0.000;2023-06-05T00:44:02;0.30;;;0.30;;
35977;SDS011;22056;0.000;0.000;2023-06-05T00:46:28;0.47;;;0.47;;
35977;SDS011;22056;0.000;0.000;2023-06-05T00:48:54;0.30;;;0.30;;
35977;SDS011;22056;0.000;0.000;2023-06-05T00:51:20;0.30;;;0.30;;
35977;SDS011;22056;0.000;0.000;2023-06-05T00:53:47;0.30;;;0.30;;
35977;SDS011;22056;0.000;0.000;2023-06-05T00:56:13;0.40;;;0.40;;
35977;SDS011;22056;0.000;0.000;2023-06-05T00:58:39;0.30;;;0.30;;
35977;SDS011;22056;0.000;0.000;2023-06-05T01:01:05;0.35;;;0.35;;
35977;SDS011;22056;0.000;0.000;2023-06-05T01:03:32;0.30;;;0.30;;
35977;SDS011;22056;0.000;0.000;2023-06-05T01:06:00;0.30;;;0.30;;
35977;SDS011;22056;0.000;0.000;2023-06-05T01:08:30;0.30;;;0.30;;
35977;SDS011;22056;0.000;0.000;2023-06-05T01:11:04;0.40;;;0.40;;
35977;SDS011;22056;0.000;0.000;2023-06-05T01:13:31;0.30;;;0.30;;
35977;SDS011;22056;0.000;0.000;2023-06-05T01:15:59;0.40;;;0.40;;
35977;SDS011;22056;0.000;0.000;2023-06-05T01:18:30;0.30;;;0.30;;
35977;SDS011;22056;0.000;0.000;2023-06-05T01:20:59;0.40;;;0.40;;
35977;SDS011;22056;0.000;0.000;2023-06-05T01:23:26;0.40;;;0.40;;
35977;SDS011;22056;0.000;0.000;2023-06-05T01:25:56;0.40;;;0.40;;
35977;SDS011;22056;0.000;0.000;2023-06-05T01:28:27;0.30;;;0.30;;
35977;SDS011;22056;0.000;0.000;2023-06-05T01:30:57;0.32;;;0.32;;
35977;SDS011;22056;0.000;0.000;2023-06-05T01:33:32;0.30;;;0.30;;
35977;SDS011;22056;0.000;0.000;2023-06-05T01:36:10;0.32;;;0.32;;
35977;SDS011;22056;0.000;0.000;2023-06-05T01:38:37;0.50;;;0.40;;
35977;SDS011;22056;0.000;0.000;2023-06-05T01:41:04;0.30;;;0.30;;
35977;SDS011;22056;0.000;0.000;2023-06-05T01:43:31;0.30;;;0.30;;
35977;SDS011;22056;0.000;0.000;2023-06-05T01:45:58;0.25;;;0.25;;
35977;SDS011;22056;0.000;0.000;2023-06-05T01:48:25;0.30;;;0.30;;
35977;SDS011;22056;0.000;0.000;2023-06-05T01:50:58;0.30;;;0.30;;
35977;SDS011;22056;0.000;0.000;2023-06-05T01:53:25;0.30;;;0.30;;
35977;SDS011;22056;0.000;0.000;2023-06-05T01:55:52;0.30;;;0.30;;
35977;SDS011;22056;0.000;0.000;2023-06-05T01:58:22;0.30;;;0.30;;
35977;SDS011;22056;0.000;0.000;2023-06-05T02:00:48;0.30;;;0.30;;
35977;SDS011;22056;0.000;0.000;2023-06-05T02:03:15;0.25;;;0.25;;
35977;SDS011;22056;0.000;0.000;2023-06-05T02:05:41;0.30;;;0.30;;
35977;SDS011;22056;0.000;0.000;2023-06-05T02:08:07;0.22;;;0.22;;
35977;SDS011;22056;0.000;0.000;2023-06-05T02:10:35;0.30;;;0.30;;
35977;SDS011;22056;0.000;0.000;2023-06-05T02:13:02;0.28;;;0.28;;
35977;SDS011;22056;0.000;0.000;2023-06-05T02:15:29;0.30;;;0.30;;
35977;SDS011;22056;0.000;0.000;2023-06-05T02:17:57;0.30;;;0.30;;
35977;SDS011;22056;0.000;0.000;2023-06-05T02:20:24;0.30;;;0.30;;
35977;SDS011;22056;0.000;0.000;2023-06-05T02:22:50;0.30;;;0.30;;
35977;SDS011;22056;0.000;0.000;2023-06-05T02:25:20;0.30;;;0.30;;
35977;SDS011;22056;0.000;0.000;2023-06-05T02:27:46;0.30;;;0.30;;
35977;SDS011;22056;0.000;0.000;2023-06-05T02:30:13;0.20;;;0.20;;
35977;SDS011;22056;0.000;0.000;2023-06-05T02:32:39;0.30;;;0.30;;
35977;SDS011;22056;0.000;0.000;2023-06-05T02:35:09;0.30;;;0.30;;
35977;SDS011;22056;0.000;0.000;2023-06-05T02:37:35;0.20;;;0.20;;
35977;SDS011;22056;0.000;0.000;2023-06-05T02:40:21;0.28;;;0.28;;
35977;SDS011;22056;0.000;0.000;2023-06-05T02:42:48;0.25;;;0.25;;
35977;SDS011;22056;0.000;0.000;2023-06-05T02:45:14;0.25;;;0.25;;
35977;SDS011;22056;0.000;0.000;2023-06-05T02:47:40;0.30;;;0.30;;
35977;SDS011;22056;0.000;0.000;2023-06-05T02:50:06;0.20;;;0.20;;
35977;SDS011;22056;0.000;0.000;2023-06-05T02:52:33;0.20;;;0.20;;
35977;SDS011;22056;0.000;0.000;2023-06-05T02:55:01;0.25;;;0.25;;
35977;SDS011;22056;0.000;0.000;2023-06-05T02:57:30;0.20;;;0.20;;
35977;SDS011;22056;0.000;0.000;2023-06-05T02:59:56;0.28;;;0.28;;
35977;SDS011;22056;0.000;0.000;2023-06-05T03:02:22;0.30;;;0.30;;
35977;SDS011;22056;0.000;0.000;2023-06-05T03:04:52;0.25;;;0.25;;
35977;SDS011;22056;0.000;0.000;2023-06-05T03:07:21;0.28;;;0.28;;
35977;SDS011;22056;0.000;0.000;2023-06-05T03:09:48;0.28;;;0.28;;
35977;SDS011;22056;0.000;0.000;2023-06-05T03:12:14;0.63;;;0.30;;
35977;SDS011;22056;0.000;0.000;2023-06-05T03:14:40;0.22;;;0.22;;
35977;SDS011;22056;0.000;0.000;2023-06-05T03:17:06;0.20;;;0.20;;
35977;SDS011;22056;0.000;0.000;2023-06-05T03:19:33;0.30;;;0.30;;
35977;SDS011;22056;0.000;0.000;2023-06-05T03:21:59;0.30;;;0.30;;
35977;SDS011;22056;0.000;0.000;2023-06-05T03:24:25;0.20;;;0.20;;
35977;SDS011;22056;0.000;0.000;2023-06-05T03:26:52;0.20;;;0.20;;
35977;SDS011;22056;0.000;0.000;2023-06-05T03:29:18;0.20;;;0.20;;
35977;SDS011;22056;0.000;0.000;2023-06-05T03:31:44;0.28;;;0.28;;
35977;SDS011;22056;0.000;0.000;2023-06-05T03:34:10;0.20;;;0.20;;
35977;SDS011;22056;0.000;0.000;2023-06-05T03:36:36;0.30;;;0.30;;
35977;SDS011;22056;0.000;0.000;2023-06-05T03:39:04;0.20;;;0.20;;
35977;SDS011;22056;0.000;0.000;2023-06-05T03:41:30;0.30;;;0.30;;
35977;SDS011;22056;0.000;0.000;2023-06-05T03:43:57;0.28;;;0.28;;
35977;SDS011;22056;0.000;0.000;2023-06-05T03:46:23;0.38;;;0.30;;
35977;SDS011;22056;0.000;0.000;2023-06-05T03:48:49;0.28;;;0.28;;
35977;SDS011;22056;0.000;0.000;2023-06-05T03:51:23;0.20;;;0.20;;
35977;SDS011;22056;0.000;0.000;2023-06-05T03:53:55;0.20;;;0.20;;
35977;SDS011;22056;0.000;0.000;2023-06-05T03:56:21;0.40;;;0.20;;
35977;SDS011;22056;0.000;0.000;2023-06-05T03:58:49;0.30;;;0.30;;
35977;SDS011;22056;0.000;0.000;2023-06-05T04:03:51;0.20;;;0.20;;
35977;SDS011;22056;0.000;0.000;2023-06-05T04:06:17;0.20;;;0.20;;
35977;SDS011;22056;0.000;0.000;2023-06-05T04:08:43;0.20;;;0.20;;
35977;SDS011;22056;0.000;0.000;2023-06-05T04:11:09;0.30;;;0.30;;
35977;SDS011;22056;0.000;0.000;2023-06-05T04:13:35;0.40;;;0.30;;
35977;SDS011;22056;0.000;0.000;2023-06-05T04:16:01;0.20;;;0.20;;
35977;SDS011;22056;0.000;0.000;2023-06-05T04:18:27;0.30;;;0.28;;
35977;SDS011;22056;0.000;0.000;2023-06-05T04:20:53;0.47;;;0.30;;
35977;SDS011;22056;0.000;0.000;2023-06-05T04:23:20;1.25;;;0.30;;
35977;SDS011;22056;0.000;0.000;2023-06-05T04:25:47;0.80;;;0.30;;
35977;SDS011;22056;0.000;0.000;2023-06-05T04:28:14;0.40;;;0.30;;
35977;SDS011;22056;0.000;0.000;2023-06-05T04:30:40;1.20;;;0.32;;
35977;SDS011;22056;0.000;0.000;2023-06-05T04:33:06;0.93;;;0.30;;
35977;SDS011;22056;0.000;0.000;2023-06-05T04:35:32;1.25;;;0.30;;
35977;SDS011;22056;0.000;0.000;2023-06-05T04:37:59;2.30;;;0.40;;
35977;SDS011;22056;0.000;0.000;2023-06-05T04:40:25;0.40;;;0.30;;
35977;SDS011;22056;0.000;0.000;2023-06-05T04:42:51;1.23;;;0.43;;
35977;SDS011;22056;0.000;0.000;2023-06-05T04:45:19;1.75;;;0.52;;
35977;SDS011;22056;0.000;0.000;2023-06-05T04:47:46;1.88;;;0.50;;
35977;SDS011;22056;0.000;0.000;2023-06-05T04:50:25;0.60;;;0.50;;
35977;SDS011;22056;0.000;0.000;2023-06-05T04:52:52;3.30;;;0.30;;
35977;SDS011;22056;0.000;0.000;2023-06-05T04:55:18;0.75;;;0.43;;
35977;SDS011;22056;0.000;0.000;2023-06-05T04:57:46;1.95;;;0.40;;
35977;SDS011;22056;0.000;0.000;2023-06-05T05:00:14;4.40;;;0.50;;
35977;SDS011;22056;0.000;0.000;2023-06-05T05:02:40;1.23;;;0.50;;
35977;SDS011;22056;0.000;0.000;2023-06-05T05:05:06;0.75;;;0.38;;
35977;SDS011;22056;0.000;0.000;2023-06-05T05:07:33;2.25;;;0.50;;
35977;SDS011;22056;0.000;0.000;2023-06-05T05:10:00;1.90;;;0.50;;
35977;SDS011;22056;0.000;0.000;2023-06-05T05:12:26;0.60;;;0.40;;
35977;SDS011;22056;0.000;0.000;2023-06-05T05:14:52;2.72;;;0.40;;
35977;SDS011;22056;0.000;0.000;2023-06-05T05:17:18;2.35;;;0.63;;
35977;SDS011;22056;0.000;0.000;2023-06-05T05:19:45;1.58;;;0.50;;
35977;SDS011;22056;0.000;0.000;2023-06-05T05:22:12;1.77;;;0.50;;
35977;SDS011;22056;0.000;0.000;2023-06-05T05:24:38;1.85;;;0.70;;
35977;SDS011;22056;0.000;0.000;2023-06-05T05:27:04;2.00;;;0.50;;
35977;SDS011;22056;0.000;0.000;2023-06-05T05:29:30;2.38;;;0.70;;
35977;SDS011;22056;0.000;0.000;2023-06-05T05:31:58;3.58;;;0.70;;
35977;SDS011;22056;0.000;0.000;2023-06-05T05:34:24;4.07;;;0.77;;
35977;SDS011;22056;0.000;0.000;2023-06-05T05:36:50;2.45;;;0.60;;
35977;SDS011;22056;0.000;0.000;2023-06-05T05:39:17;0.70;;;0.50;;
35977;SDS011;22056;0.000;0.000;2023-06-05T05:41:43;1.42;;;0.57;;
35977;SDS011;22056;0.000;0.000;2023-06-05T05:44:09;3.13;;;0.77;;
35977;SDS011;22056;0.000;0.000;2023-06-05T05:46:36;1.70;;;0.75;;
35977;SDS011;22056;0.000;0.000;2023-06-05T05:49:02;2.03;;;0.50;;
35977;SDS011;22056;0.000;0.000;2023-06-05T05:51:28;1.77;;;0.63;;
35977;SDS011;22056;0.000;0.000;2023-06-05T05:53:54;4.30;;;0.95;;
35977;SDS011;22056;0.000;0.000;2023-06-05T05:56:20;1.67;;;0.57;;
35977;SDS011;22056;0.000;0.000;2023-06-05T05:58:46;1.55;;;0.60;;
35977;SDS011;22056;0.000;0.000;2023-06-05T06:01:12;0.95;;;0.60;;
35977;SDS011;22056;0.000;0.000;2023-06-05T06:03:39;7.90;;;0.95;;
35977;SDS011;22056;0.000;0.000;2023-06-05T06:06:05;1.95;;;0.68;;
35977;SDS011;22056;0.000;0.000;2023-06-05T06:08:33;3.55;;;0.70;;
35977;SDS011;22056;0.000;0.000;2023-06-05T06:11:00;0.95;;;0.50;;
35977;SDS011;22056;0.000;0.000;2023-06-05T06:13:28;2.05;;;0.57;;
35977;SDS011;22056;0.000;0.000;2023-06-05T06:15:55;3.13;;;0.50;;
35977;SDS011;22056;0.000;0.000;2023-06-05T06:18:21;2.78;;;0.80;;
35977;SDS011;22056;0.000;0.000;2023-06-05T06:20:47;3.17;;;0.70;;
35977;SDS011;22056;0.000;0.000;2023-06-05T06:23:13;3.45;;;0.73;;
35977;SDS011;22056;0.000;0.000;2023-06-05T06:25:40;2.97;;;0.55;;
35977;SDS011;22056;0.000;0.000;2023-06-05T06:28:06;2.58;;;0.82;;
35977;SDS011;22056;0.000;0.000;2023-06-05T06:30:32;4.65;;;0.70;;
35977;SDS011;22056;0.000;0.000;2023-06-05T06:32:58;3.45;;;0.85;;
35977;SDS011;22056;0.000;0.000;2023-06-05T06:35:25;1.52;;;0.60;;
35977;SDS011;22056;0.000;0.000;2023-06-05T06:37:54;2.83;;;0.57;;
35977;SDS011;22056;0.000;0.000;2023-06-05T06:40:21;3.85;;;0.80;;
35977;SDS011;22056;0.000;0.000;2023-06-05T06:42:48;1.38;;;0.50;;
35977;SDS011;22056;0.000;0.000;2023-06-05T06:45:15;0.98;;;0.60;;
35977;SDS011;22056;0.000;0.000;2023-06-05T06:47:42;1.77;;;0.73;;
35977;SDS011;22056;0.000;0.000;2023-06-05T06:50:08;2.33;;;0.60;;
35977;SDS011;22056;0.000;0.000;2023-06-05T06:52:35;3.90;;;0.70;;
35977;SDS011;22056;0.000;0.000;2023-06-05T06:55:01;2.72;;;0.80;;
35977;SDS011;22056;0.000;0.000;2023-06-05T06:57:27;1.83;;;0.70;;
35977;SDS011;22056;0.000;0.000;2023-06-05T06:59:53;2.60;;;0.70;;
35977;SDS011;22056;0.000;0.000;2023-06-05T07:02:22;4.15;;;0.80;;
35977;SDS011;22056;0.000;0.000;2023-06-05T07:04:48;2.65;;;0.93;;
35977;SDS011;22056;0.000;0.000;2023-06-05T07:07:15;5.28;;;0.98;;
35977;SDS011;22056;0.000;0.000;2023-06-05T07:09:42;2.05;;;0.70;;
35977;SDS011;22056;0.000;0.000;2023-06-05T07:12:09;2.35;;;0.70;;
35977;SDS011;22056;0.000;0.000;2023-06-05T07:14:35;3.95;;;0.63;;
35977;SDS011;22056;0.000;0.000;2023-06-05T07:17:01;3.72;;;0.68;;
35977;SDS011;22056;0.000;0.000;2023-06-05T07:19:28;3.75;;;0.77;;
35977;SDS011;22056;0.000;0.000;2023-06-05T07:21:59;3.33;;;0.80;;
35977;SDS011;22056;0.000;0.000;2023-06-05T07:24:25;3.40;;;1.00;;
35977;SDS011;22056;0.000;0.000;2023-06-05T07:26:56;4.03;;;1.10;;
35977;SDS011;22056;0.000;0.000;2023-06-05T07:29:23;4.25;;;0.80;;
35977;SDS011;22056;0.000;0.000;2023-06-05T07:31:50;1.95;;;0.65;;
35977;SDS011;22056;0.000;0.000;2023-06-05T07:34:19;3.60;;;0.75;;
35977;SDS011;22056;0.000;0.000;2023-06-05T07:36:46;4.50;;;0.63;;
35977;SDS011;22056;0.000;0.000;2023-06-05T07:39:13;3.03;;;0.82;;
35977;SDS011;22056;0.000;0.000;2023-06-05T07:41:39;4.68;;;0.70;;
35977;SDS011;22056;0.000;0.000;2023-06-05T07:44:09;3.15;;;0.90;;
35977;SDS011;22056;0.000;0.000;2023-06-05T07:46:35;2.40;;;0.80;;
35977;SDS011;22056;0.000;0.000;2023-06-05T07:49:02;3.90;;;0.82;;
35977;SDS011;22056;0.000;0.000;2023-06-05T07:51:28;2.47;;;0.90;;
35977;SDS011;22056;0.000;0.000;2023-06-05T07:53:58;1.35;;;0.73;;
35977;SDS011;22056;0.000;0.000;2023-06-05T07:56:25;3.92;;;0.85;;
35977;SDS011;22056;0.000;0.000;2023-06-05T07:58:51;3.28;;;0.93;;
35977;SDS011;22056;0.000;0.000;2023-06-05T08:01:17;2.83;;;0.82;;
35977;SDS011;22056;0.000;0.000;2023-06-05T08:03:45;2.38;;;0.70;;
35977;SDS011;22056;0.000;0.000;2023-06-05T08:06:11;3.03;;;0.90;;
35977;SDS011;22056;0.000;0.000;2023-06-05T08:08:38;2.90;;;0.80;;
35977;SDS011;22056;0.000;0.000;2023-06-05T08:11:04;3.00;;;0.90;;
35977;SDS011;22056;0.000;0.000;2023-06-05T08:13:31;6.50;;;0.80;;
35977;SDS011;22056;0.000;0.000;2023-06-05T08:15:57;3.47;;;0.90;;
35977;SDS011;22056;0.000;0.000;2023-06-05T08:18:23;2.78;;;0.77;;
35977;SDS011;22056;0.000;0.000;2023-06-05T08:20:50;3.28;;;0.85;;
35977;SDS011;22056;0.000;0.000;2023-06-05T08:23:16;3.88;;;0.82;;
35977;SDS011;22056;0.000;0.000;2023-06-05T08:25:42;4.60;;;1.10;;
35977;SDS011;22056;0.000;0.000;2023-06-05T08:28:08;4.07;;;0.95;;
35977;SDS011;22056;0.000;0.000;2023-06-05T08:30:34;1.80;;;0.70;;
35977;SDS011;22056;0.000;0.000;2023-06-05T08:33:01;6.75;;;1.08;;
35977;SDS011;22056;0.000;0.000;2023-06-05T08:35:27;5.22;;;1.10;;
35977;SDS011;22056;0.000;0.000;2023-06-05T08:37:53;4.20;;;0.80;;
35977;SDS011;22056;0.000;0.000;2023-06-05T08:40:20;5.97;;;1.40;;
35977;SDS011;22056;0.000;0.000;2023-06-05T08:42:47;2.35;;;0.63;;
35977;SDS011;22056;0.000;0.000;2023-06-05T08:45:13;1.63;;;0.63;;
35977;SDS011;22056;0.000;0.000;2023-06-05T08:47:39;3.17;;;0.90;;
35977;SDS011;22056;0.000;0.000;2023-06-05T08:50:07;3.05;;;1.00;;
35977;SDS011;22056;0.000;0.000;2023-06-05T08:52:33;6.35;;;0.80;;
35977;SDS011;22056;0.000;0.000;2023-06-05T08:55:00;1.88;;;0.88;;
35977;SDS011;22056;0.000;0.000;2023-06-05T08:57:27;2.47;;;0.90;;
35977;SDS011;22056;0.000;0.000;2023-06-05T08:59:53;2.33;;;0.90;;
35977;SDS011;22056;0.000;0.000;2023-06-05T09:02:20;2.22;;;0.70;;
35977;SDS011;22056;0.000;0.000;2023-06-05T09:04:46;1.20;;;0.70;;
35977;SDS011;22056;0.000;0.000;2023-06-05T09:07:14;3.15;;;0.90;;
35977;SDS011;22056;0.000;0.000;2023-06-05T09:09:42;3.33;;;0.88;;
35977;SDS011;22056;0.000;0.000;2023-06-05T09:12:08;5.63;;;0.80;;
35977;SDS011;22056;0.000;0.000;2023-06-05T09:14:35;3.35;;;1.00;;
35977;SDS011;22056;0.000;0.000;2023-06-05T09:17:02;1.67;;;0.60;;
35977;SDS011;22056;0.000;0.000;2023-06-05T09:19:37;1.95;;;0.70;;
35977;SDS011;22056;0.000;0.000;2023-06-05T09:22:05;2.63;;;0.80;;
35977;SDS011;22056;0.000;0.000;2023-06-05T09:24:31;3.38;;;0.98;;
35977;SDS011;22056;0.000;0.000;2023-06-05T09:27:02;2.60;;;0.70;;
35977;SDS011;22056;0.000;0.000;2023-06-05T09:29:32;2.25;;;0.75;;
35977;SDS011;22056;0.000;0.000;2023-06-05T09:32:02;2.10;;;0.80;;
35977;SDS011;22056;0.000;0.000;2023-06-05T09:34:30;0.90;;;0.50;;
35977;SDS011;22056;0.000;0.000;2023-06-05T09:36:57;2.78;;;0.70;;
35977;SDS011;22056;0.000;0.000;2023-06-05T09:39:24;1.65;;;0.90;;
35977;SDS011;22056;0.000;0.000;2023-06-05T09:41:51;2.25;;;0.90;;
35977;SDS011;22056;0.000;0.000;2023-06-05T09:44:18;4.18;;;0.88;;
35977;SDS011;22056;0.000;0.000;2023-06-05T09:49:20;2.60;;;1.02;;
35977;SDS011;22056;0.000;0.000;2023-06-05T09:51:46;1.38;;;0.45;;
35977;SDS011;22056;0.000;0.000;2023-06-05T09:54:13;2.35;;;1.00;;
35977;SDS011;22056;0.000;0.000;2023-06-05T09:56:40;1.67;;;0.88;;
35977;SDS011;22056;0.000;0.000;2023-06-05T09:59:07;3.53;;;0.65;;
35977;SDS011;22056;0.000;0.000;2023-06-05T10:01:36;2.90;;;1.05;;
35977;SDS011;22056;0.000;0.000;2023-06-05T10:04:05;2.85;;;0.90;;
35977;SDS011;22056;0.000;0.000;2023-06-05T10:06:33;3.70;;;1.00;;
35977;SDS011;22056;0.000;0.000;2023-06-05T10:08:59;2.28;;;0.75;;
35977;SDS011;22056;0.000;0.000;2023-06-05T10:11:26;2.55;;;0.75;;
35977;SDS011;22056;0.000;0.000;2023-06-05T10:13:56;3.90;;;0.90;;
35977;SDS011;22056;0.000;0.000;2023-06-05T10:16:25;2.90;;;0.80;;
35977;SDS011;22056;0.000;0.000;2023-06-05T10:18:53;2.85;;;0.85;;
35977;SDS011;22056;0.000;0.000;2023-06-05T10:21:20;4.97;;;0.75;;
35977;SDS011;22056;0.000;0.000;2023-06-05T10:24:10;2.20;;;0.65;;
35977;SDS011;22056;0.000;0.000;2023-06-05T10:29:27;3.00;;;0.75;;
35977;SDS011;22056;0.000;0.000;2023-06-05T10:32:03;3.63;;;0.90;;
35977;SDS011;22056;0.000;0.000;2023-06-05T10:39:24;2.22;;;0.90;;
35977;SDS011;22056;0.000;0.000;2023-06-05T10:41:51;2.03;;;1.00;;
35977;SDS011;22056;0.000;0.000;2023-06-05T10:44:17;2.10;;;0.73;;
35977;SDS011;22056;0.000;0.000;2023-06-05T10:46:43;6.15;;;1.00;;
35977;SDS011;22056;0.000;0.000;2023-06-05T10:49:13;5.97;;;1.02;;
35977;SDS011;22056;0.000;0.000;2023-06-05T10:51:45;5.38;;;1.05;;
35977;SDS011;22056;0.000;0.000;2023-06-05T10:54:12;3.97;;;1.00;;
35977;SDS011;22056;0.000;0.000;2023-06-05T10:59:17;3.53;;;0.80;;
35977;SDS011;22056;0.000;0.000;2023-06-05T11:01:50;3.70;;;0.82;;
35977;SDS011;22056;0.000;0.000;2023-06-05T11:07:16;3.15;;;0.93;;
35977;SDS011;22056;0.000;0.000;2023-06-05T11:12:26;3.17;;;0.88;;
35977;SDS011;22056;0.000;0.000;2023-06-05T11:14:53;2.35;;;0.70;;
35977;SDS011;22056;0.000;0.000;2023-06-05T11:17:25;5.10;;;1.00;;
35977;SDS011;22056;0.000;0.000;2023-06-05T11:19:52;3.55;;;0.80;;
35977;SDS011;22056;0.000;0.000;2023-06-05T11:22:18;2.65;;;1.00;;
35977;SDS011;22056;0.000;0.000;2023-06-05T11:24:45;2.05;;;0.85;;
35977;SDS011;22056;0.000;0.000;2023-06-05T11:29:56;3.20;;;1.10;;
35977;SDS011;22056;0.000;0.000;2023-06-05T11:32:24;2.95;;;0.95;;
35977;SDS011;22056;0.000;0.000;2023-06-05T11:34:51;2.35;;;0.90;;
35977;SDS011;22056;0.000;0.000;2023-06-05T11:37:21;3.25;;;1.00;;
35977;SDS011;22056;0.000;0.000;2023-06-05T11:39:48;3.28;;;1.00;;
35977;SDS011;22056;0.000;0.000;2023-06-05T11:42:21;4.50;;;1.20;;
35977;SDS011;22056;0.000;0.000;2023-06-05T11:44:48;5.25;;;1.00;;
35977;SDS011;22056;0.000;0.000;2023-06-05T11:47:24;3.88;;;1.02;;
35977;SDS011;22056;0.000;0.000;2023-06-05T11:49:50;1.85;;;0.90;;
35977;SDS011;22056;0.000;0.000;2023-06-05T11:52:17;3.38;;;1.08;;
35977;SDS011;22056;0.000;0.000;2023-06-05T11:54:44;2.30;;;0.98;;
35977;SDS011;22056;0.000;0.000;2023-06-05T11:57:18;3.10;;;1.00;;
35977;SDS011;22056;0.000;0.000;2023-06-05T11:59:52;3.25;;;1.02;;
35977;SDS011;22056;0.000;0.000;2023-06-05T12:02:20;2.95;;;1.10;;
35977;SDS011;22056;0.000;0.000;2023-06-05T12:04:47;3.72;;;0.88;;
35977;SDS011;22056;0.000;0.000;2023-06-05T12:07:13;3.25;;;0.82;;
35977;SDS011;22056;0.000;0.000;2023-06-05T12:09:52;2.17;;;0.90;;
35977;SDS011;22056;0.000;0.000;2023-06-05T12:12:18;3.13;;;0.93;;
35977;SDS011;22056;0.000;0.000;2023-06-05T12:14:45;1.98;;;0.90;;
35977;SDS011;22056;0.000;0.000;2023-06-05T12:17:11;2.72;;;0.90;;
35977;SDS011;22056;0.000;0.000;2023-06-05T12:19:37;5.30;;;1.02;;
35977;SDS011;22056;0.000;0.000;2023-06-05T12:22:05;2.97;;;1.00;;
35977;SDS011;22056;0.000;0.000;2023-06-05T12:24:32;3.88;;;1.02;;
35977;SDS011;22056;0.000;0.000;2023-06-05T12:26:59;1.80;;;0.70;;
35977;SDS011;22056;0.000;0.000;2023-06-05T12:29:29;2.30;;;1.05;;
35977;SDS011;22056;0.000;0.000;2023-06-05T12:31:56;2.72;;;0.90;;
35977;SDS011;22056;0.000;0.000;2023-06-05T12:37:07;4.40;;;1.02;;
35977;SDS011;22056;0.000;0.000;2023-06-05T12:39:33;5.10;;;1.10;;
35977;SDS011;22056;0.000;0.000;2023-06-05T12:42:00;3.53;;;0.85;;
35977;SDS011;22056;0.000;0.000;2023-06-05T12:44:26;6.88;;;1.27;;
35977;SDS011;22056;0.000;0.000;2023-06-05T12:46:53;6.50;;;1.02;;
35977;SDS011;22056;0.000;0.000;2023-06-05T12:49:19;9.88;;;1.27;;
35977;SDS011;22056;0.000;0.000;2023-06-05T12:51:45;8.32;;;1.20;;
35977;SDS011;22056;0.000;0.000;2023-06-05T12:54:11;8.77;;;1.25;;
35977;SDS011;22056;0.000;0.000;2023-06-05T12:56:39;5.18;;;1.30;;
35977;SDS011;22056;0.000;0.000;2023-06-05T12:59:05;6.57;;;1.42;;
35977;SDS011;22056;0.000;0.000;2023-06-05T13:01:32;9.38;;;1.60;;
35977;SDS011;22056;0.000;0.000;2023-06-05T13:04:01;7.53;;;1.15;;
35977;SDS011;22056;0.000;0.000;2023-06-05T13:06:27;2.83;;;1.25;;
35977;SDS011;22056;0.000;0.000;2023-06-05T13:08:53;4.82;;;1.38;;
35977;SDS011;22056;0.000;0.000;2023-06-05T13:11:19;3.30;;;1.13;;
35977;SDS011;22056;0.000;0.000;2023-06-05T13:13:46;4.78;;;1.10;;
35977;SDS011;22056;0.000;0.000;2023-06-05T13:16:12;2.72;;;0.93;;
35977;SDS011;22056;0.000;0.000;2023-06-05T13:18:38;2.45;;;1.10;;
35977;SDS011;22056;0.000;0.000;2023-06-05T13:21:04;4.50;;;1.13;;
35977;SDS011;22056;0.000;0.000;2023-06-05T13:23:31;4.50;;;1.10;;
35977;SDS011;22056;0.000;0.000;2023-06-05T13:25:57;4.00;;;1.45;;
35977;SDS011;22056;0.000;0.000;2023-06-05T13:28:24;5.13;;;1.27;;
35977;SDS011;22056;0.000;0.000;2023-06-05T13:30:50;3.22;;;0.90;;
35977;SDS011;22056;0.000;0.000;2023-06-05T13:33:18;4.53;;;1.20;;
35977;SDS011;22056;0.000;0.000;2023-06-05T13:35:44;2.75;;;1.23;;
35977;SDS011;22056;0.000;0.000;2023-06-05T13:38:10;3.63;;;1.02;;
35977;SDS011;22056;0.000;0.000;2023-06-05T13:40:36;5.13;;;0.90;;
35977;SDS011;22056;0.000;0.000;2023-06-05T13:43:03;4.72;;;1.25;;
35977;SDS011;22056;0.000;0.000;2023-06-05T13:45:29;2.90;;;1.02;;
35977;SDS011;22056;0.000;0.000;2023-06-05T13:47:55;2.13;;;0.85;;
35977;SDS011;22056;0.000;0.000;2023-06-05T13:50:21;2.35;;;0.80;;
35977;SDS011;22056;0.000;0.000;2023-06-05T13:52:47;2.92;;;1.00;;
35977;SDS011;22056;0.000;0.000;2023-06-05T13:55:13;4.78;;;1.10;;
35977;SDS011;22056;0.000;0.000;2023-06-05T13:57:40;4.35;;;0.82;;
35977;SDS011;22056;0.000;0.000;2023-06-05T14:00:06;5.25;;;1.13;;
35977;SDS011;22056;0.000;0.000;2023-06-05T14:02:33;4.88;;;1.10;;
35977;SDS011;22056;0.000;0.000;2023-06-05T14:04:59;3.45;;;0.82;;
35977;SDS011;22056;0.000;0.000;2023-06-05T14:07:25;4.25;;;1.00;;
35977;SDS011;22056;0.000;0.000;2023-06-05T14:09:51;5.78;;;1.38;;
35977;SDS011;22056;0.000;0.000;2023-06-05T14:12:17;2.28;;;0.80;;
35977;SDS011;22056;0.000;0.000;2023-06-05T14:14:44;6.43;;;0.93;;
35977;SDS011;22056;0.000;0.000;2023-06-05T14:17:10;2.38;;;0.93;;
35977;SDS011;22056;0.000;0.000;2023-06-05T14:19:36;3.53;;;1.00;;
35977;SDS011;22056;0.000;0.000;2023-06-05T14:22:02;4.93;;;1.00;;
35977;SDS011;22056;0.000;0.000;2023-06-05T14:24:30;5.63;;;1.00;;
35977;SDS011;22056;0.000;0.000;2023-06-05T14:26:56;3.50;;;1.00;;
35977;SDS011;22056;0.000;0.000;2023-06-05T14:29:22;4.88;;;1.00;;
35977;SDS011;22056;0.000;0.000;2023-06-05T14:31:49;3.83;;;0.88;;
35977;SDS011;22056;0.000;0.000;2023-06-05T14:34:15;2.65;;;0.80;;
35977;SDS011;22056;0.000;0.000;2023-06-05T14:36:41;4.53;;;1.08;;
35977;SDS011;22056;0.000;0.000;2023-06-05T14:39:15;4.07;;;1.15;;
35977;SDS011;22056;0.000;0.000;2023-06-05T14:41:42;3.88;;;1.10;;
35977;SDS011;22056;0.000;0.000;2023-06-05T14:44:08;4.20;;;1.10;;
35977;SDS011;22056;0.000;0.000;2023-06-05T14:46:34;4.05;;;1.08;;
35977;SDS011;22056;0.000;0.000;2023-06-05T14:49:00;6.15;;;1.50;;
35977;SDS011;22056;0.000;0.000;2023-06-05T14:51:27;6.43;;;1.13;;
35977;SDS011;22056;0.000;0.000;2023-06-05T14:53:53;2.53;;;0.90;;
35977;SDS011;22056;0.000;0.000;2023-06-05T14:56:19;2.92;;;1.20;;
35977;SDS011;22056;0.000;0.000;2023-06-05T14:58:46;4.63;;;0.88;;
35977;SDS011;22056;0.000;0.000;2023-06-05T15:01:12;3.42;;;1.00;;
35977;SDS011;22056;0.000;0.000;2023-06-05T15:03:39;4.30;;;1.27;;
35977;SDS011;22056;0.000;0.000;2023-06-05T15:06:05;6.75;;;1.02;;
35977;SDS011;22056;0.000;0.000;2023-06-05T15:08:31;3.83;;;1.08;;
35977;SDS011;22056;0.000;0.000;2023-06-05T15:10:58;5.68;;;1.45;;
35977;SDS011;22056;0.000;0.000;2023-06-05T15:13:24;3.35;;;1.30;;
35977;SDS011;22056;0.000;0.000;2023-06-05T15:15:50;3.90;;;0.95;;
35977;SDS011;22056;0.000;0.000;2023-06-05T15:18:17;2.90;;;0.95;;
35977;SDS011;22056;0.000;0.000;2023-06-05T15:20:43;6.75;;;1.20;;
35977;SDS011;22056;0.000;0.000;2023-06-05T15:23:09;3.42;;;1.02;;
35977;SDS011;22056;0.000;0.000;2023-06-05T15:25:35;1.83;;;1.00;;